createdAt,value
2022-12-22T00:01:21.900Z,16.77
2022-12-22T00:04:08.419Z,21.15
2022-12-22T00:06:56.214Z,17.48
2022-12-22T00:09:46.146Z,19.10
2022-12-22T00:12:38.421Z,15.13
2022-12-22T00:15:31.630Z,14.45
2022-12-22T00:18:18.332Z,16.02
2022-12-22T00:21:05.109Z,24.77
2022-12-22T00:23:52.977Z,22.08
2022-12-22T00:26:39.239Z,16.88
2022-12-22T00:29:30.072Z,16.27
2022-12-22T00:32:16.450Z,16.90
2022-12-22T00:35:02.583Z,18.20
2022-12-22T00:37:51.900Z,16.60
2022-12-22T00:40:40.755Z,18.33
2022-12-22T00:43:27.134Z,19.83
2022-12-22T00:46:13.854Z,17.10
2022-12-22T00:49:02.486Z,16.13
2022-12-22T00:51:49.550Z,17.75
2022-12-22T00:54:37.393Z,17.80
2022-12-22T00:57:25.022Z,21.80
2022-12-22T01:00:13.682Z,19.10
2022-12-22T01:03:00.061Z,17.95
2022-12-22T01:05:46.250Z,17.08
2022-12-22T01:08:32.508Z,18.77
2022-12-22T01:11:18.549Z,19.35
2022-12-22T01:14:06.037Z,21.75
2022-12-22T01:16:52.216Z,15.27
2022-12-22T01:19:38.620Z,15.35
2022-12-22T01:22:27.939Z,23.13
2022-12-22T01:25:14.081Z,18.38
2022-12-22T01:28:00.440Z,19.55
2022-12-22T01:30:47.929Z,18.80
2022-12-22T01:33:34.134Z,16.70
2022-12-22T01:36:20.164Z,17.23
2022-12-22T01:39:06.294Z,19.63
2022-12-22T01:41:52.631Z,21.70
2022-12-22T01:44:39.007Z,21.98
2022-12-22T01:47:52.916Z,18.85
2022-12-22T01:50:44.429Z,15.90
2022-12-22T01:53:36.811Z,16.08
2022-12-22T01:56:23.907Z,17.60
2022-12-22T01:59:13.780Z,17.38
2022-12-22T02:02:00.876Z,16.50
2022-12-22T02:04:53.093Z,20.42
2022-12-22T02:07:50.962Z,26.40
2022-12-22T02:10:49.423Z,19.73
2022-12-22T02:13:48.219Z,16.65
2022-12-22T02:16:41.211Z,15.35
2022-12-22T02:19:40.528Z,16.02
2022-12-22T02:22:40.149Z,20.92
2022-12-22T02:25:33.398Z,18.13
2022-12-22T02:28:23.105Z,14.27
2022-12-22T02:31:10.172Z,14.60
2022-12-22T02:33:56.114Z,18.73
2022-12-22T02:36:51.453Z,18.02
2022-12-22T02:39:46.638Z,18.27
2022-12-22T02:42:40.798Z,16.08
2022-12-22T02:45:35.566Z,20.13
2022-12-22T02:48:26.518Z,18.73
2022-12-22T02:51:22.876Z,19.25
2022-12-22T02:54:10.839Z,20.08
2022-12-22T02:56:57.459Z,17.92
2022-12-22T02:59:43.443Z,16.77
2022-12-22T03:02:31.482Z,20.83
2022-12-22T03:05:17.550Z,18.38
2022-12-22T03:08:08.164Z,20.58
2022-12-22T03:10:55.614Z,19.92
2022-12-22T03:13:41.989Z,14.23
2022-12-22T03:16:28.133Z,18.40
2022-12-22T03:19:15.478Z,21.13
2022-12-22T03:22:01.478Z,20.52
2022-12-22T03:24:47.791Z,19.95
2022-12-22T03:27:16.509Z,17.63
2022-12-22T03:29:44.850Z,19.55
2022-12-22T03:32:13.220Z,18.02
2022-12-22T03:34:43.097Z,19.50
2022-12-22T03:37:11.420Z,16.67
2022-12-22T03:39:39.943Z,20.77
2022-12-22T03:42:25.979Z,24.73
2022-12-22T03:45:12.483Z,20.33
2022-12-22T03:47:41.137Z,19.85
2022-12-22T03:50:11.727Z,17.10
2022-12-22T03:52:40.032Z,20.10
2022-12-22T03:55:09.183Z,22.02
2022-12-22T03:57:37.486Z,18.23
2022-12-22T04:00:07.395Z,14.38
2022-12-22T04:02:35.826Z,14.30
2022-12-22T04:05:04.601Z,13.68
2022-12-22T04:07:34.472Z,20.63
2022-12-22T04:10:19.677Z,14.80
2022-12-22T04:12:57.404Z,15.88
2022-12-22T04:15:28.838Z,15.10
2022-12-22T04:17:58.753Z,13.35
2022-12-22T04:20:28.339Z,13.95
2022-12-22T04:22:58.879Z,11.43
2022-12-22T04:25:28.431Z,12.35
2022-12-22T04:27:56.898Z,11.80
2022-12-22T04:30:25.250Z,12.95
2022-12-22T04:32:53.574Z,12.32
2022-12-22T04:35:22.139Z,14.48
2022-12-22T04:37:50.464Z,15.75
2022-12-22T04:40:20.335Z,12.63
2022-12-22T04:42:48.812Z,10.65
2022-12-22T04:45:17.265Z,14.73
2022-12-22T04:47:45.614Z,10.40
2022-12-22T04:50:13.909Z,12.10
2022-12-22T04:52:42.470Z,13.80
2022-12-22T04:55:11.059Z,13.25
2022-12-22T04:57:41.281Z,13.93
2022-12-22T05:00:11.044Z,13.23
2022-12-22T05:02:39.448Z,16.38
2022-12-22T05:05:09.414Z,13.48
2022-12-22T05:07:38.051Z,12.60
2022-12-22T05:10:07.107Z,16.30
2022-12-22T05:12:53.199Z,13.95
2022-12-22T05:15:23.330Z,13.20
2022-12-22T05:17:51.951Z,15.43
2022-12-22T05:20:20.508Z,14.15
2022-12-22T05:22:49.194Z,14.98
2022-12-22T05:25:18.235Z,14.65
2022-12-22T05:27:57.675Z,14.23
2022-12-22T05:30:27.448Z,16.58
2022-12-22T05:32:55.777Z,19.20
2022-12-22T05:35:24.247Z,15.77
2022-12-22T05:37:52.645Z,16.45
2022-12-22T05:40:21.121Z,17.52
2022-12-22T05:42:49.451Z,16.23
2022-12-22T05:45:20.077Z,21.88
2022-12-22T05:47:52.308Z,14.75
2022-12-22T05:50:23.458Z,15.20
2022-12-22T05:52:51.807Z,15.32
2022-12-22T05:55:20.105Z,15.75
2022-12-22T05:57:48.414Z,16.92
2022-12-22T06:00:18.719Z,15.60
2022-12-22T06:02:47.281Z,15.93
2022-12-22T06:05:17.028Z,14.38
2022-12-22T06:07:45.399Z,17.65
2022-12-22T06:10:14.270Z,15.00
2022-12-22T06:12:43.568Z,13.15
2022-12-22T06:15:15.250Z,15.18
2022-12-22T06:17:45.141Z,11.70
2022-12-22T06:20:14.655Z,13.65
2022-12-22T06:22:44.516Z,14.23
2022-12-22T06:25:18.093Z,15.32
2022-12-22T06:27:47.546Z,21.65
2022-12-22T06:30:16.905Z,20.10
2022-12-22T06:32:45.291Z,23.55
2022-12-22T06:35:13.699Z,20.38
2022-12-22T06:37:43.716Z,22.80
2022-12-22T06:40:12.726Z,24.50
2022-12-22T06:43:04.135Z,24.38
2022-12-22T06:45:37.701Z,19.00
2022-12-22T06:48:06.228Z,26.02
2022-12-22T06:50:34.975Z,25.20
2022-12-22T06:53:05.166Z,28.23
2022-12-22T06:55:33.579Z,28.20
2022-12-22T06:58:02.263Z,36.67
2022-12-22T07:00:30.658Z,26.73
2022-12-22T07:02:59.259Z,28.38
2022-12-22T07:05:28.013Z,28.08
2022-12-22T07:07:57.905Z,30.77
2022-12-22T07:10:48.433Z,38.67
2022-12-22T07:13:24.165Z,31.77
2022-12-22T07:16:00.213Z,30.38
2022-12-22T07:18:31.236Z,33.60
2022-12-22T07:21:02.142Z,35.83
2022-12-22T07:23:31.218Z,34.15
2022-12-22T07:26:00.914Z,31.13
2022-12-22T07:28:29.528Z,31.98
2022-12-22T07:30:57.918Z,28.38
2022-12-22T07:33:26.365Z,31.23
2022-12-22T07:36:06.903Z,25.45
2022-12-22T07:38:37.372Z,33.03
2022-12-22T07:41:28.863Z,34.88
2022-12-22T07:43:58.457Z,40.55
2022-12-22T07:46:29.404Z,42.42
2022-12-22T07:49:15.602Z,42.55
2022-12-22T07:51:44.568Z,47.75
2022-12-22T07:54:14.798Z,53.63
2022-12-22T07:56:45.785Z,60.33
2022-12-22T07:59:14.824Z,58.13
2022-12-22T08:01:43.562Z,62.80
2022-12-22T08:04:12.240Z,59.10
2022-12-22T08:06:41.128Z,58.10
2022-12-22T08:09:11.052Z,56.85
2022-12-22T08:11:39.543Z,60.50
2022-12-22T08:14:09.491Z,53.25
2022-12-22T08:16:38.048Z,48.20
2022-12-22T08:19:06.406Z,55.80
2022-12-22T08:21:34.715Z,49.85
2022-12-22T08:24:03.166Z,52.08
2022-12-22T08:26:36.681Z,56.00
2022-12-22T08:29:12.408Z,53.28
2022-12-22T08:31:41.839Z,54.05
2022-12-22T08:34:13.623Z,51.15
2022-12-22T08:36:45.007Z,56.50
2022-12-22T08:39:15.640Z,57.45
2022-12-22T08:41:53.391Z,58.25
2022-12-22T08:44:24.923Z,60.20
2022-12-22T08:46:55.073Z,55.53
2022-12-22T08:49:24.328Z,56.30
2022-12-22T08:51:53.265Z,60.88
2022-12-22T08:54:22.125Z,54.30
2022-12-22T08:56:50.992Z,56.03
2022-12-22T08:59:19.647Z,54.20
2022-12-22T09:01:50.679Z,57.00
2022-12-22T09:04:22.067Z,47.50
2022-12-22T09:06:53.170Z,55.60
2022-12-22T09:09:22.080Z,51.25
2022-12-22T09:11:50.458Z,58.83
2022-12-22T09:14:19.012Z,54.20
2022-12-22T09:16:50.316Z,54.72
2022-12-22T09:19:18.932Z,53.70
2022-12-22T09:21:47.422Z,55.03
2022-12-22T09:24:16.200Z,56.58
2022-12-22T09:26:45.522Z,55.50
2022-12-22T09:29:15.988Z,62.78
2022-12-22T09:31:44.636Z,53.28
2022-12-22T09:34:18.023Z,52.67
2022-12-22T09:36:47.769Z,47.50
2022-12-22T09:39:16.855Z,43.75
2022-12-22T09:41:48.375Z,52.53
2022-12-22T09:44:24.768Z,45.40
2022-12-22T09:46:55.046Z,41.55
2022-12-22T09:49:24.800Z,42.95
2022-12-22T09:51:57.004Z,36.05
2022-12-22T09:54:26.790Z,40.80
2022-12-22T09:56:55.109Z,46.55
2022-12-22T09:59:27.052Z,46.72
2022-12-22T10:02:04.877Z,40.60
2022-12-22T10:04:50.183Z,41.63
2022-12-22T10:07:26.030Z,41.42
2022-12-22T10:09:54.593Z,43.78
2022-12-22T10:12:24.949Z,54.53
2022-12-22T10:14:55.187Z,52.50
2022-12-22T10:17:26.457Z,43.08
2022-12-22T10:20:10.602Z,40.53
2022-12-22T10:22:48.143Z,33.80
2022-12-22T10:25:35.781Z,32.28
2022-12-22T10:28:21.689Z,35.53
2022-12-22T10:30:50.483Z,43.45
2022-12-22T10:33:19.977Z,39.45
2022-12-22T10:35:52.677Z,42.05
2022-12-22T10:38:26.017Z,43.72
2022-12-22T10:41:02.129Z,46.35
2022-12-22T10:43:33.964Z,50.40
2022-12-22T10:46:04.294Z,49.17
2022-12-22T10:48:34.956Z,51.25
2022-12-22T10:51:07.941Z,52.00
2022-12-22T10:53:46.228Z,49.08
2022-12-22T10:56:23.227Z,76.03
2022-12-22T10:58:53.586Z,103.88
2022-12-22T11:01:30.082Z,46.65
2022-12-22T11:04:15.364Z,19.20
2022-12-22T11:06:45.975Z,14.27
2022-12-22T11:09:32.980Z,11.55
2022-12-22T11:12:11.772Z,12.48
2022-12-22T11:14:48.975Z,10.45
2022-12-22T11:17:23.892Z,13.07
2022-12-22T11:20:05.106Z,13.20
2022-12-22T11:22:41.468Z,11.90
2022-12-22T11:25:28.928Z,15.45
2022-12-22T11:28:18.646Z,17.23
2022-12-22T11:31:00.532Z,16.58
2022-12-22T11:33:44.523Z,18.55
2022-12-22T11:36:24.121Z,16.08
2022-12-22T11:39:01.421Z,15.27
2022-12-22T11:41:43.515Z,16.60
2022-12-22T11:44:27.694Z,15.27
2022-12-22T11:47:04.772Z,12.88
2022-12-22T11:49:48.228Z,12.90
2022-12-22T11:52:35.854Z,11.95
2022-12-22T11:55:25.075Z,13.40
2022-12-22T11:58:04.901Z,15.52
2022-12-22T12:01:12.610Z,15.43
2022-12-22T12:03:53.967Z,15.45
2022-12-22T12:06:31.738Z,15.15
2022-12-22T12:09:12.051Z,18.63
2022-12-22T12:11:48.208Z,16.42
2022-12-22T12:14:25.569Z,16.95
2022-12-22T12:17:00.501Z,19.15
2022-12-22T12:20:04.386Z,18.80
2022-12-22T12:22:46.078Z,16.08
2022-12-22T12:25:29.283Z,18.13
2022-12-22T12:28:13.119Z,18.83
2022-12-22T12:30:51.894Z,18.58
2022-12-22T12:33:28.405Z,24.63
2022-12-22T12:36:04.200Z,20.42
2022-12-22T12:41:42.302Z,19.25
2022-12-22T12:44:14.900Z,24.05
2022-12-22T12:46:56.492Z,23.65
2022-12-22T12:50:03.298Z,20.60
2022-12-22T12:53:16.719Z,27.83
2022-12-22T12:56:03.515Z,25.27
2022-12-22T12:58:50.315Z,22.33
2022-12-22T13:01:58.404Z,24.52
2022-12-22T13:05:11.304Z,18.23
2022-12-22T13:08:16.749Z,19.70
2022-12-22T13:11:10.135Z,21.90
2022-12-22T13:13:48.784Z,19.23
2022-12-22T13:16:32.621Z,20.70
2022-12-22T13:19:06.706Z,18.95
2022-12-22T13:21:56.013Z,27.90
2022-12-22T13:27:08.090Z,27.02
2022-12-22T13:29:47.736Z,20.92
2022-12-22T13:32:26.194Z,20.05
2022-12-22T13:37:53.807Z,26.90
2022-12-22T13:40:24.903Z,25.92
2022-12-22T13:42:56.153Z,24.75
2022-12-22T13:45:34.833Z,22.45
2022-12-22T13:50:38.080Z,24.90
2022-12-22T13:53:09.071Z,20.33
2022-12-22T13:55:39.095Z,19.17
2022-12-22T13:58:22.030Z,23.63
2022-12-22T14:01:01.688Z,19.00
2022-12-22T14:06:27.732Z,20.65
2022-12-22T14:09:11.171Z,23.70
2022-12-22T14:11:45.554Z,25.15
2022-12-22T14:14:20.535Z,24.33
2022-12-22T14:16:52.861Z,22.20
2022-12-22T14:19:23.310Z,22.20
2022-12-22T14:22:03.735Z,23.27
2022-12-22T14:24:38.715Z,27.50
2022-12-22T14:27:17.706Z,22.42
2022-12-22T14:29:46.561Z,23.63
2022-12-22T14:32:35.489Z,23.83
2022-12-22T14:35:04.622Z,25.55
2022-12-22T14:37:33.449Z,30.13
2022-12-22T14:40:01.875Z,22.02
2022-12-22T14:42:31.781Z,27.38
2022-12-22T14:45:00.625Z,24.50
2022-12-22T14:47:30.636Z,23.73
2022-12-22T14:50:02.479Z,27.63
2022-12-22T14:52:37.636Z,25.92
2022-12-22T14:55:19.464Z,26.88
2022-12-22T14:57:54.667Z,21.77
2022-12-22T15:00:45.483Z,22.55
2022-12-22T15:03:31.932Z,19.75
2022-12-22T15:06:25.597Z,25.40
2022-12-22T15:09:08.818Z,25.50
2022-12-22T15:11:39.914Z,24.00
2022-12-22T15:14:13.010Z,21.58
2022-12-22T15:16:41.635Z,22.63
2022-12-22T15:19:15.302Z,23.23
2022-12-22T15:21:43.985Z,18.30
2022-12-22T15:24:15.385Z,22.83
2022-12-22T15:26:44.422Z,21.17
2022-12-22T15:29:13.125Z,24.48
2022-12-22T15:31:43.236Z,20.67
2022-12-22T15:34:17.617Z,21.17
2022-12-22T15:36:46.134Z,20.55
2022-12-22T15:39:16.844Z,25.52
2022-12-22T15:41:46.235Z,24.25
2022-12-22T15:44:15.137Z,21.08
2022-12-22T15:46:45.864Z,21.45
2022-12-22T15:49:19.119Z,17.58
2022-12-22T15:51:50.950Z,19.95
2022-12-22T15:54:20.035Z,21.48
2022-12-22T15:56:51.236Z,20.80
2022-12-22T15:59:23.510Z,19.90
2022-12-22T16:01:58.367Z,18.65
2022-12-22T16:04:30.791Z,17.73
2022-12-22T16:07:00.323Z,18.73
2022-12-22T16:09:38.109Z,24.73
2022-12-22T16:12:13.114Z,24.10
2022-12-22T16:14:49.793Z,20.27
2022-12-22T16:17:23.112Z,23.20
2022-12-22T16:19:53.128Z,18.08
2022-12-22T16:22:26.978Z,22.75
2022-12-22T16:24:55.630Z,23.65
2022-12-22T16:27:24.136Z,21.75
2022-12-22T16:29:54.941Z,25.95
2022-12-22T16:32:28.444Z,27.65
2022-12-22T16:35:14.820Z,24.80
2022-12-22T16:37:43.662Z,28.15
2022-12-22T16:40:12.687Z,26.38
2022-12-22T16:45:33.258Z,36.80
2022-12-22T16:48:06.579Z,28.52
2022-12-22T16:50:36.650Z,25.90
2022-12-22T16:53:07.068Z,31.90
2022-12-22T16:55:35.944Z,31.23
2022-12-22T16:58:12.831Z,29.42
2022-12-22T17:00:44.615Z,29.10
2022-12-22T17:03:16.095Z,30.00
2022-12-22T17:05:49.178Z,30.70
2022-12-22T17:08:21.841Z,31.13
2022-12-22T17:10:51.902Z,34.60
2022-12-22T17:13:21.334Z,36.28
2022-12-22T17:15:49.711Z,32.90
2022-12-22T17:18:20.446Z,34.28
2022-12-22T17:20:52.349Z,38.15
2022-12-22T17:23:30.878Z,37.25
2022-12-22T17:26:01.559Z,45.67
2022-12-22T17:28:30.280Z,40.05
2022-12-22T17:30:59.268Z,41.22
2022-12-22T17:33:27.891Z,38.60
2022-12-22T17:35:58.454Z,44.28
2022-12-22T17:38:28.866Z,41.30
2022-12-22T17:40:57.564Z,42.10
2022-12-22T17:43:26.271Z,33.45
2022-12-22T17:45:54.635Z,38.33
2022-12-22T17:48:22.984Z,43.22
2022-12-22T17:50:51.707Z,40.05
2022-12-22T17:53:22.432Z,41.78
2022-12-22T17:56:08.980Z,35.90
2022-12-22T17:58:38.456Z,40.80
2022-12-22T18:01:07.672Z,37.50
2022-12-22T18:03:36.020Z,49.75
2022-12-22T18:06:05.274Z,40.58
2022-12-22T18:08:35.871Z,34.58
2022-12-22T18:11:04.675Z,35.55
2022-12-22T18:13:33.958Z,36.83
2022-12-22T18:16:02.616Z,37.97
2022-12-22T18:18:32.420Z,32.78
2022-12-22T18:21:06.476Z,38.10
2022-12-22T18:23:39.684Z,37.00
2022-12-22T18:26:18.173Z,35.47
2022-12-22T18:28:46.786Z,32.53
2022-12-22T18:31:15.232Z,34.00
2022-12-22T18:33:45.955Z,29.85
2022-12-22T18:36:18.677Z,32.60
2022-12-22T18:38:49.992Z,32.10
2022-12-22T18:41:21.995Z,30.65
2022-12-22T18:43:52.534Z,29.77
2022-12-22T18:46:22.010Z,33.22
2022-12-22T18:48:50.699Z,34.88
2022-12-22T18:51:22.092Z,30.58
2022-12-22T18:53:54.732Z,26.10
2022-12-22T18:56:23.545Z,25.52
2022-12-22T18:58:52.309Z,28.17
2022-12-22T19:01:24.242Z,27.70
2022-12-22T19:03:55.279Z,30.85
2022-12-22T19:06:25.204Z,31.67
2022-12-22T19:08:55.400Z,29.80
2022-12-22T19:11:29.681Z,28.33
2022-12-22T19:13:58.820Z,28.45
2022-12-22T19:16:28.073Z,37.03
2022-12-22T19:18:59.826Z,26.38
2022-12-22T19:21:28.450Z,27.98
2022-12-22T19:23:58.389Z,33.97
2022-12-22T19:26:28.742Z,34.88
2022-12-22T19:29:00.536Z,32.10
2022-12-22T19:31:31.818Z,23.48
2022-12-22T19:34:02.446Z,30.67
2022-12-22T19:36:33.259Z,38.63
2022-12-22T19:39:05.450Z,28.15
2022-12-22T19:41:41.303Z,34.45
2022-12-22T19:44:37.485Z,27.42
2022-12-22T19:47:16.662Z,31.60
2022-12-22T19:49:45.730Z,26.33
2022-12-22T19:52:14.407Z,31.13
2022-12-22T19:54:44.684Z,35.13
2022-12-22T19:57:19.111Z,32.58
2022-12-22T19:59:50.809Z,30.10
2022-12-22T20:02:31.985Z,27.52
2022-12-22T20:05:03.600Z,26.40
2022-12-22T20:07:36.854Z,39.70
2022-12-22T20:10:08.433Z,28.50
2022-12-22T20:12:42.384Z,26.52
2022-12-22T20:15:17.977Z,29.05
2022-12-22T20:17:47.199Z,38.22
2022-12-22T20:20:17.072Z,29.35
2022-12-22T20:22:57.561Z,37.60
2022-12-22T20:25:38.489Z,30.67
2022-12-22T20:28:13.689Z,33.35
2022-12-22T20:30:42.839Z,35.88
2022-12-22T20:33:12.201Z,37.13
2022-12-22T20:35:45.571Z,43.20
2022-12-22T20:38:19.194Z,41.17
2022-12-22T20:40:50.656Z,35.40
2022-12-22T20:43:22.848Z,44.05
2022-12-22T20:45:57.537Z,36.55
2022-12-22T20:48:32.746Z,38.72
2022-12-22T20:51:02.111Z,41.05
2022-12-22T20:53:30.840Z,28.75
2022-12-22T20:56:01.908Z,32.80
2022-12-22T20:58:34.790Z,48.50
2022-12-22T21:01:04.321Z,47.35
2022-12-22T21:03:32.826Z,39.72
2022-12-22T21:06:02.129Z,41.10
2022-12-22T21:08:31.355Z,41.92
2022-12-22T21:11:01.982Z,42.78
2022-12-22T21:13:30.448Z,45.05
2022-12-22T21:15:58.858Z,36.40
2022-12-22T21:18:27.783Z,33.13
2022-12-22T21:20:56.524Z,40.55
2022-12-22T21:23:25.038Z,48.58
2022-12-22T21:25:54.446Z,48.92
2022-12-22T21:28:30.813Z,35.67
2022-12-22T21:31:00.292Z,44.10
2022-12-22T21:33:32.283Z,44.22
2022-12-22T21:36:03.231Z,36.53
2022-12-22T21:38:34.824Z,44.47
2022-12-22T21:41:03.828Z,45.53
2022-12-22T21:43:33.671Z,37.55
2022-12-22T21:46:05.816Z,48.83
2022-12-22T21:48:38.303Z,43.67
2022-12-22T21:51:08.222Z,43.75
2022-12-22T21:53:37.250Z,46.25
2022-12-22T21:56:17.416Z,44.20
2022-12-22T21:58:48.034Z,50.75
2022-12-22T22:01:17.977Z,43.53
2022-12-22T22:03:46.461Z,49.58
2022-12-22T22:06:14.933Z,48.67
2022-12-22T22:08:43.389Z,55.00
2022-12-22T22:11:19.530Z,63.03
2022-12-22T22:13:52.223Z,55.28
2022-12-22T22:16:21.784Z,64.80
2022-12-22T22:18:51.278Z,57.90
2022-12-22T22:21:20.636Z,52.28
2022-12-22T22:23:49.490Z,46.75
2022-12-22T22:26:18.381Z,47.75
2022-12-22T22:28:49.440Z,46.30
2022-12-22T22:31:18.280Z,49.17
2022-12-22T22:33:49.742Z,48.97
2022-12-22T22:36:18.493Z,54.88
2022-12-22T22:38:51.902Z,58.95
2022-12-22T22:41:20.851Z,58.97
2022-12-22T22:43:50.649Z,53.33
2022-12-22T22:46:19.347Z,46.95
2022-12-22T22:48:48.483Z,57.90
2022-12-22T22:51:17.089Z,49.35
2022-12-22T22:53:45.590Z,64.00
2022-12-22T22:56:14.037Z,53.85
2022-12-22T22:58:42.483Z,51.33
2022-12-22T23:01:12.675Z,56.25
2022-12-22T23:03:41.974Z,49.88
2022-12-22T23:06:13.828Z,54.55
2022-12-22T23:08:42.450Z,51.38
2022-12-22T23:11:13.860Z,58.47
2022-12-22T23:13:42.750Z,57.53
2022-12-22T23:16:12.683Z,65.35
2022-12-22T23:18:41.240Z,54.08
2022-12-22T23:21:10.079Z,60.88
2022-12-22T23:23:38.785Z,46.33
2022-12-22T23:26:07.660Z,62.85
2022-12-22T23:28:36.117Z,56.50
2022-12-22T23:31:04.603Z,51.25
2022-12-22T23:33:34.653Z,62.90
2022-12-22T23:36:03.046Z,42.00
2022-12-22T23:38:32.035Z,57.03
2022-12-22T23:41:03.276Z,60.90
2022-12-22T23:43:32.083Z,44.58
2022-12-22T23:46:00.933Z,48.92
2022-12-22T23:48:29.449Z,46.60
2022-12-22T23:50:59.231Z,51.90
2022-12-22T23:53:27.680Z,53.88
2022-12-22T23:55:56.247Z,45.17
2022-12-22T23:58:24.918Z,50.45
